New Germany, Canada
Current Conditions -  °F | °C
As of 9:00 PM on Thursday 18 Dec 2014 (Local Time) from CYZX Reporting Station
Snow Showers Snow Showers  
Wind Chill: 24°   Ceiling: 1600
Heat Index: 34°   Visibility: 2mi
Dew Point: 32°   Wind: 15mph
Humidity: 93%   Direction: 270°W
Pressure: 29.44"   Gusts: 21mph
Location:  44.55°N, 64.72°W
Report Text: CYZX 190100Z 27013G18KT 2SM -SHSN SCT011 OVC016 01/M00 A2944 RMK SC3SC5 WNDY HILL 30019G29KT SLP969
Loading
Personal Weather Stations






























Interactive Weather Map New forecast layout! Learn more

10-Day Weather Forecast

Advertisements
Track Severe Weather on mobile